Pagrindinis puslapis
METAR-TAF:

METAR-TAF

Oro uostai :

Santorinas, Graikija

platuma: 36-24N, ilguma: 025-29E, Aukštis: 38 m

Dabartinis oras

Ataskaita buvo paskelbta 16 minutes, ne 03:50 UTC
Vėjas 11 kt iš Šiaurės Vakarų
Temperatūra 13°C
Drėgmė 67%
Slėgis 1017 hPa
Matomumas 10 km arba daugiau
Mažai debesys ne aukštis 2500 ft

METAR: LGSR 010350Z 32011KT 9999 FEW025 13/07 Q1017

Laikas: 06:06 (04:06 UTC)

Prognozė

Ataskaita buvo paskelbta 5 valandos ir 6 minutes, ne 23:00 UTC
Prognozė galioja nuo 01 metu 00 UTC su 01 metu 24 UTC
Vėjas 13 kt iš Vakarų/Šiaurės Vakarų su gūsio iki 23 kt
Matomumas 10 km arba daugiau
Išsisklaidę debesys ne aukštis 2500 ft
Tapsmas
nuo 01 metu 04 UTC su 01 metu 06 UTC
Vėjas 13 kt iš Vakarų/Šiaurės Vakarų

TAF: LGSR 302300Z 0100/0124 29013G23KT 9999 SCT025 BECMG 0104/0106 29013KT

Orai ataskaitas ir orų prognozės (METAR, TAF).

turimą stotys yra geltonos ir raudonos taškus žemėlapyje.

Perkelti pele per norėdami pamatyti stoties vardą.

Tada spustelėkite, norėdami matyti oro stebėjimo ir prognozės.

Norėdami pakeisti žemėlapį: spustelėkite ant žalios mygtukų su juodo kryžiaus žemyn,; žalią mygtuką su brūkšneliu, jei norite nutolinti; arba žalių rodyklių gretimoms žemėlapius.


METAR-TAF: